Libera — 9HOG8 — position and weather

sailwx.info

Track history (hours):
 
Tides and Currents Weather Stations Pressure Air Temp Water Temp Dewpoint Dewpoint Depression Visibility Wind Speed Wind Dir Waves Ship Positions

Libera

Last reported at 2018-Feb-19 11:54 UTC. Time now 2018-Feb-19 12:17 UTC.
Position N 36°11' W 005°24'.

Length 176 m; draft 7.3 m.

Type: Tanker. MMSI: 256209000.

Date/timePositionNaut miles runAvg speedWind from/ knotsBaromVisibWave heightAir tempDewpointWater temp
2018-Feb-19 11:54N 36°11' W 005°24'0 0.0
2018-Feb-19 11:30N 36°11' W 005°24'0 0.0
2018-Feb-19 11:00N 36°11' W 005°24'0 0.0
2018-Feb-19 10:30N 36°11' W 005°24'0 0.0
2018-Feb-19 10:00N 36°11' W 005°24'0 0.0
2018-Feb-19 09:30N 36°11' W 005°24'0 0.0
2018-Feb-19 09:00N 36°11' W 005°24'  
2018-Feb-16 07:13N 36°40' W 000°45'313.7
2018-Feb-16 07:00N 36°41' W 000°41'1213.7
2018-Feb-16 06:06N 36°43' W 000°26'213.9
2018-Feb-16 05:56N 36°44' W 000°23'1113.7
2018-Feb-16 05:09N 36°45' W 000°10'313.7
2018-Feb-16 04:55N 36°46' W 000°06'613.7
2018-Feb-16 04:27N 36°47' E 000°02'613.9
2018-Feb-16 04:00N 36°48' E 000°09'713.9
2018-Feb-16 03:30N 36°49' E 000°18'714.0
2018-Feb-16 03:00N 36°51' E 000°27'714.5
2018-Feb-16 02:30N 36°52' E 000°35'714.4
2018-Feb-16 02:00N 36°53' E 000°44'714.2
2018-Feb-16 01:30N 36°54' E 000°53'714.0
2018-Feb-16 01:00N 36°55' E 001°02'713.7
2018-Feb-16 00:30N 36°57' E 001°10'  
2018-Feb-13 19:16N 36°32' E 014°02'3 8.2
2018-Feb-13 18:55N 36°31' E 014°06'3 7.4
2018-Feb-13 18:29N 36°29' E 014°09'4 8.0
2018-Feb-13 17:57N 36°28' E 014°14'4 7.9
2018-Feb-13 17:28N 36°27' E 014°19'5 7.3
2018-Feb-13 16:49N 36°25' E 014°24'3 7.7
2018-Feb-13 16:29N 36°24' E 014°27'5 8.4
2018-Feb-13 15:55N 36°23' E 014°33'4 8.9
2018-Feb-13 15:30N 36°21' E 014°37'5 9.8
2018-Feb-13 14:58N 36°19' E 014°43'  
2018-Feb-10 21:32N 35°50' E 030°21'013.5
2018-Feb-10 21:31N 35°50' E 030°21'  
Track history (hours):
 
Tides and Currents Weather Stations Pressure Air Temp Water Temp Dewpoint Dewpoint Depression Visibility Wind Speed Wind Dir Waves Ship Positions

Libera

Last reported at 2018-Feb-19 11:54 UTC. Time now 2018-Feb-19 12:17 UTC.
Position N 36°11' W 005°24'.

Length 176 m; draft 7.3 m.

Type: Tanker. MMSI: 256209000.

Date/timePositionNaut miles runAvg speedWind from/ knotsBaromVisibWave heightAir tempDewpointWater temp
2018-Feb-19 11:54N 36°11' W 005°24'0 0.0
2018-Feb-19 11:30N 36°11' W 005°24'0 0.0
2018-Feb-19 11:00N 36°11' W 005°24'0 0.0
2018-Feb-19 10:30N 36°11' W 005°24'0 0.0
2018-Feb-19 10:00N 36°11' W 005°24'0 0.0
2018-Feb-19 09:30N 36°11' W 005°24'0 0.0
2018-Feb-19 09:00N 36°11' W 005°24'  
2018-Feb-16 07:13N 36°40' W 000°45'313.7
2018-Feb-16 07:00N 36°41' W 000°41'1213.7
2018-Feb-16 06:06N 36°43' W 000°26'213.9
2018-Feb-16 05:56N 36°44' W 000°23'1113.7
2018-Feb-16 05:09N 36°45' W 000°10'313.7
2018-Feb-16 04:55N 36°46' W 000°06'613.7
2018-Feb-16 04:27N 36°47' E 000°02'613.9
2018-Feb-16 04:00N 36°48' E 000°09'713.9
2018-Feb-16 03:30N 36°49' E 000°18'714.0
2018-Feb-16 03:00N 36°51' E 000°27'714.5
2018-Feb-16 02:30N 36°52' E 000°35'714.4
2018-Feb-16 02:00N 36°53' E 000°44'714.2
2018-Feb-16 01:30N 36°54' E 000°53'714.0
2018-Feb-16 01:00N 36°55' E 001°02'713.7
2018-Feb-16 00:30N 36°57' E 001°10'  
2018-Feb-13 19:16N 36°32' E 014°02'3 8.2
2018-Feb-13 18:55N 36°31' E 014°06'3 7.4
2018-Feb-13 18:29N 36°29' E 014°09'4 8.0
2018-Feb-13 17:57N 36°28' E 014°14'4 7.9
2018-Feb-13 17:28N 36°27' E 014°19'5 7.3
2018-Feb-13 16:49N 36°25' E 014°24'3 7.7
2018-Feb-13 16:29N 36°24' E 014°27'5 8.4
2018-Feb-13 15:55N 36°23' E 014°33'4 8.9
2018-Feb-13 15:30N 36°21' E 014°37'5 9.8
2018-Feb-13 14:58N 36°19' E 014°43'  
2018-Feb-10 21:32N 35°50' E 030°21'013.5
2018-Feb-10 21:31N 35°50' E 030°21'  

Dump ship's entire track history